Estación Meteorológica Peña el Pijo (Robertgarden) [ 11/20/17 01:25:30 CET ]

Fecha Hora Presion(HPa) Temp (°C) Humedad % Rocio (°C) Viento ( m/s) Direccion Lluvia 1Hora(mm) Lluvia 24H(mm) LLuvia Total(mm)
2017-Nov-15 01:01:44 1009.700 -1.7 58 -8.9         1468.01
2017-Nov-15 02:04:09 1009.400 -1.1 58 -8.3         1468.01
2017-Nov-15 03:01:46 1009.500 -2.4 59 -9.3         1468.01
2017-Nov-15 04:01:47 1009.200 -3.2 62 -9.5         1468.01
2017-Nov-15 05:01:53 1009.100 -3.0 64 -8.9         1468.01
2017-Nov-15 06:01:46 1008.800 -3.2 64 -9.1         1468.01
2017-Nov-15 07:01:53 1009.200 -3.6 64 -9.5         1468.01
2017-Nov-15 08:01:55 1009.700 -3.5 65 -9.2         1468.01
2017-Nov-15 09:01:47 1009.700 -0.9 64 -6.9         1468.01
2017-Nov-15 10:01:52 1009.600 8.7 41 -3.9         1468.01
2017-Nov-15 11:01:45 1009.400 16.4 29 -1.8         1468.01
2017-Nov-15 12:01:54 1008.800 17.9 23 -3.7 1.5 NNW     1468.01
2017-Nov-15 13:01:46 1008.300 19.1 19 -5.3 1.1 SSW     1468.01
2017-Nov-15 14:01:40 1007.600 20.6 19 -4.0         1468.01
2017-Nov-15 15:01:53 1007.100 20.4 18 -5.1         1468.01
2017-Nov-15 16:01:50 1007.000 19.2 19 -5.2         1468.01
2017-Nov-15 17:01:50 1007.500 15.6 22 -6.2         1468.01
2017-Nov-15 18:02:00 1007.800 12.6 26 -6.6         1468.01
2017-Nov-15 19:01:46 1008.700 7.8 33 -7.6         1468.01
2017-Nov-15 20:01:46 1009.100 5.3 38 -8.0         1468.01
2017-Nov-15 21:01:49 1009.300 3.0 43 -8.4         1468.01
2017-Nov-15 22:01:46 1009.700 2.4 48 -7.5         1468.01
2017-Nov-15 23:01:40 1009.700 1.5 50 -7.8         1468.01

Temperatura Máxima:20°    Temperatura Mínima:-3°
Presión Máxima:1009.700 Hpa    Presión Mínima:1007.000 Hpa


Volver